Time;durP1;ratioP1;P1;durP2;ratioP2;P2;SDS_P1;SDS_P2;PMS_P1;PMS_P2;Temp;Humidity;BMP_temperature;BMP_pressure;BME280_temperature;BME280_humidity;BME280_pressure;Samples;Min_cycle;Max_cycle;Signal;HPM_P1;HPM_P2
2023/08/19 00:01:04;;;;;;;9.18;6.03;;;22.60;99.90;;;;;;5031159;28;20039;-53
2023/08/19 00:03:31;;;;;;;11.25;6.72;;;22.60;99.90;;;;;;5030940;28;20029;-52
2023/08/19 00:05:59;;;;;;;11.88;7.65;;;22.60;99.90;;;;;;5031382;28;20037;-54
2023/08/19 00:08:25;;;;;;;;;;;22.60;99.90;;;;;;5045879;22;20590;-60
2023/08/19 00:10:50;;;;;;;13.23;7.60;;;22.60;99.90;;;;;;5030986;28;20000;-58
2023/08/19 00:13:16;;;;;;;11.85;6.72;;;22.50;99.90;;;;;;5030659;28;20036;-59
2023/08/19 00:15:41;;;;;;;10.48;6.65;;;22.60;99.90;;;;;;5031298;28;20421;-56
2023/08/19 00:18:07;;;;;;;12.48;7.38;;;22.50;99.90;;;;;;5030819;28;20029;-59
2023/08/19 00:20:33;;;;;;;10.98;6.70;;;22.50;99.90;;;;;;5030925;28;20036;-59
2023/08/19 00:22:59;;;;;;;10.45;6.05;;;22.60;99.90;;;;;;5030562;28;20128;-59
2023/08/19 00:25:26;;;;;;;8.88;5.63;;;22.50;99.90;;;;;;5030740;28;20486;-59
2023/08/19 00:27:52;;;;;;;8.45;5.47;;;22.60;99.90;;;;;;5012834;28;20104;-59
2023/08/19 00:30:19;;;;;;;10.45;6.65;;;22.50;99.90;;;;;;5012895;28;20033;-60
2023/08/19 00:32:46;;;;;;;10.30;6.65;;;22.60;99.90;;;;;;5030459;28;20556;-60
2023/08/19 00:35:13;;;;;;;8.90;5.93;;;22.50;99.90;;;;;;5012899;28;20116;-60
2023/08/19 00:37:38;;;;;;;14.38;6.32;;;22.50;99.90;;;;;;5012698;28;20039;-58
2023/08/19 00:40:05;;;;;;;12.18;6.47;;;22.50;99.90;;;;;;5013052;28;20029;-59
2023/08/19 00:42:31;;;;;;;10.48;5.75;;;22.50;99.90;;;;;;5030423;28;20045;-60
2023/08/19 00:44:57;;;;;;;9.15;5.20;;;22.50;99.90;;;;;;5030234;28;20029;-59
2023/08/19 00:47:24;;;;;;;10.85;5.03;;;22.40;99.90;;;;;;5012714;28;20033;-60
2023/08/19 00:49:50;;;;;;;10.25;5.85;;;22.50;99.90;;;;;;5012892;28;20386;-59
2023/08/19 00:52:17;;;;;;;8.85;5.57;;;22.40;99.90;;;;;;5012647;28;20072;-60
2023/08/19 00:54:43;;;;;;;8.43;5.93;;;22.40;99.90;;;;;;5012716;28;20470;-59
2023/08/19 00:57:09;;;;;;;10.70;6.18;;;22.40;99.90;;;;;;5016289;28;20064;-59
2023/08/19 00:59:36;;;;;;;8.00;4.93;;;22.40;99.90;;;;;;5016850;28;20532;-60
2023/08/19 01:02:03;;;;;;;8.90;5.13;;;22.40;99.90;;;;;;5034405;28;20034;-60
2023/08/19 01:04:28;;;;;;;10.48;5.22;;;22.40;99.90;;;;;;5016689;28;20053;-59
2023/08/19 01:07:07;;;;;;;7.80;4.20;;;22.30;99.90;;;;;;5016562;28;20509;-59
2023/08/19 01:10:03;;;;;;;7.00;4.97;;;22.40;99.90;;;;;;5016806;28;20041;-60
2023/08/19 01:12:28;;;;;;;8.88;4.90;;;22.40;99.90;;;;;;5016856;28;20498;-60
2023/08/19 01:15:05;;;;;;;9.32;5.25;;;22.30;99.90;;;;;;5016942;28;20025;-60
2023/08/19 01:17:32;;;;;;;8.88;4.63;;;22.30;99.90;;;;;;5016538;28;20021;-60
2023/08/19 01:19:58;;;;;;;8.50;5.00;;;22.30;99.90;;;;;;5016700;28;20036;-59
2023/08/19 01:22:51;;;;;;;9.93;4.65;;;22.20;99.90;;;;;;5033894;28;20033;-60
2023/08/19 01:25:18;;;;;;;6.47;4.07;;;22.10;99.90;;;;;;5034269;28;20056;-60
2023/08/19 01:27:44;;;;;;;8.15;4.80;;;22.10;99.90;;;;;;5016304;28;20553;-60
2023/08/19 01:30:11;;;;;;;6.18;3.80;;;22.00;99.90;;;;;;5016339;28;20033;-59
2023/08/19 01:32:38;;;;;;;6.35;4.40;;;22.00;99.90;;;;;;5033770;28;20033;-60
2023/08/19 01:35:05;;;;;;;7.72;4.57;;;21.90;99.90;;;;;;5033807;28;20104;-58
2023/08/19 01:38:06;;;;;;;6.95;4.22;;;21.90;99.90;;;;;;5015886;28;20049;-60
2023/08/19 01:40:34;;;;;;;7.75;3.90;;;21.80;99.90;;;;;;5016089;28;20478;-60
2023/08/19 01:43:01;;;;;;;5.90;3.45;;;21.80;99.90;;;;;;5015672;28;20061;-59
2023/08/19 01:45:27;;;;;;;5.53;3.58;;;21.70;99.90;;;;;;5015837;28;20504;-60
2023/08/19 01:47:55;;;;;;;8.90;4.53;;;21.70;99.90;;;;;;5015792;28;20021;-60
2023/08/19 01:50:21;;;;;;;7.30;4.18;;;21.70;99.90;;;;;;5015862;28;20363;-59
2023/08/19 01:52:47;;;;;;;6.30;4.00;;;21.60;99.90;;;;;;5015840;28;20071;-60
2023/08/19 01:55:12;;;;;;;7.72;4.18;;;21.60;99.90;;;;;;5016142;28;20030;-59
2023/08/19 01:57:38;;;;;;;7.70;4.22;;;21.60;99.90;;;;;;5015514;28;20034;-60
2023/08/19 02:00:05;;;;;;;7.75;4.50;;;21.50;99.90;;;;;;5015512;28;20022;-60
2023/08/19 02:02:40;;;;;;;7.50;4.03;;;21.50;99.90;;;;;;5033466;28;20068;-59
2023/08/19 02:05:05;;;;;;;6.25;3.78;;;21.50;99.90;;;;;;5033522;28;20033;-60
2023/08/19 02:07:31;;;;;;;6.65;4.13;;;21.50;99.90;;;;;;5014190;28;20406;-60
2023/08/19 02:09:57;;;;;;;6.47;3.63;;;21.40;99.90;;;;;;5033380;28;20050;-59
2023/08/19 02:12:22;;;;;;;9.10;4.07;;;21.40;99.90;;;;;;5015176;28;20045;-59
2023/08/19 02:14:48;;;;;;;6.90;3.78;;;21.40;99.90;;;;;;5033206;28;20041;-60
2023/08/19 02:17:14;;;;;;;6.03;3.70;;;21.30;99.90;;;;;;5015259;28;20021;-60
2023/08/19 02:19:39;;;;;;;10.50;4.15;;;21.30;99.90;;;;;;5033045;28;20045;-60
2023/08/19 02:22:06;;;;;;;6.75;3.85;;;21.30;99.90;;;;;;5015062;28;20045;-59
2023/08/19 02:24:31;;;;;;;9.20;4.40;;;21.30;99.90;;;;;;5014970;28;20619;-60
2023/08/19 02:26:57;;;;;;;7.35;3.80;;;21.20;99.90;;;;;;5014996;28;20132;-58
2023/08/19 02:29:22;;;;;;;7.85;4.57;;;21.20;99.90;;;;;;5014945;28;20112;-60
2023/08/19 02:31:48;;;;;;;7.07;4.57;;;21.20;99.90;;;;;;5032863;28;20127;-58
2023/08/19 02:34:14;;;;;;;7.43;4.10;;;21.20;99.90;;;;;;5032591;28;20033;-57
2023/08/19 02:36:39;;;;;;;6.53;4.15;;;21.10;99.90;;;;;;5014789;28;20035;-60
2023/08/19 02:39:05;;;;;;;8.88;4.45;;;21.10;99.90;;;;;;5032750;28;20036;-60
2023/08/19 02:41:30;;;;;;;8.50;4.72;;;21.10;99.90;;;;;;5032467;28;20121;-60
2023/08/19 02:43:56;;;;;;;7.68;3.97;;;21.10;99.90;;;;;;5014737;28;20522;-60
2023/08/19 02:46:22;;;;;;;8.05;4.30;;;21.00;99.90;;;;;;5014703;28;20071;-60
2023/08/19 02:48:47;;;;;;;10.55;4.10;;;21.00;99.90;;;;;;5014672;28;20509;-60
2023/08/19 02:51:13;;;;;;;5.57;3.65;;;21.00;99.90;;;;;;5014643;28;20056;-60
2023/08/19 02:53:39;;;;;;;10.57;4.35;;;20.90;99.90;;;;;;5014275;28;20025;-60
2023/08/19 02:56:06;;;;;;;7.15;3.50;;;20.90;99.90;;;;;;5032382;28;20037;-59
2023/08/19 02:58:32;;;;;;;6.07;3.42;;;20.90;99.90;;;;;;5014328;28;20387;-60
2023/08/19 03:00:58;;;;;;;7.05;3.45;;;20.90;99.90;;;;;;5014498;28;20040;-60
2023/08/19 03:03:24;;;;;;;6.63;3.67;;;20.90;99.90;;;;;;5032213;28;20026;-60
2023/08/19 03:05:49;;;;;;;7.32;3.22;;;20.90;99.90;;;;;;5014216;28;20175;-60
2023/08/19 03:08:15;;;;;;;7.50;3.97;;;20.90;99.90;;;;;;5014129;28;20061;-59
2023/08/19 03:10:41;;;;;;;6.95;3.63;;;20.90;99.90;;;;;;5032064;28;20074;-58
2023/08/19 03:13:08;;;;;;;5.75;3.08;;;20.90;99.90;;;;;;5013983;28;20033;-60
2023/08/19 03:15:36;;;;;;;8.35;3.75;;;20.90;99.90;;;;;;5031963;28;20520;-60
2023/08/19 03:18:02;;;;;;;6.10;3.63;;;20.90;99.90;;;;;;5013889;28;20044;-59
2023/08/19 03:20:28;;;;;;;5.68;3.63;;;20.90;99.90;;;;;;5014039;28;20033;-60
2023/08/19 03:22:54;;;;;;;8.70;3.67;;;20.90;99.90;;;;;;5032097;28;20051;-59
2023/08/19 03:25:19;;;;;;;7.22;3.47;;;20.90;99.90;;;;;;5013784;28;20075;-59
2023/08/19 03:27:45;;;;;;;5.05;2.88;;;21.00;99.90;;;;;;5031616;28;20060;-59
2023/08/19 03:30:12;;;;;;;6.25;3.05;;;21.00;99.90;;;;;;5014143;28;20108;-59
2023/08/19 03:32:38;;;;;;;6.63;2.90;;;21.20;99.90;;;;;;5014087;28;20029;-60
2023/08/19 03:35:04;;;;;;;7.60;3.45;;;21.20;99.90;;;;;;5014018;28;20034;-59
2023/08/19 03:37:29;;;;;;;5.15;2.92;;;21.30;99.90;;;;;;5013935;28;20034;-59
2023/08/19 03:39:55;;;;;;;7.10;3.10;;;21.40;99.90;;;;;;5013733;28;20033;-60
2023/08/19 03:42:21;;;;;;;5.65;3.28;;;21.40;99.90;;;;;;5031297;28;20040;-59
2023/08/19 03:44:46;;;;;;;5.88;3.00;;;21.50;99.90;;;;;;5013666;28;20446;-60
2023/08/19 03:47:13;;;;;;;6.00;3.20;;;21.50;99.90;;;;;;5013436;28;20032;-60
2023/08/19 03:49:40;;;;;;;6.22;3.20;;;21.50;99.90;;;;;;5031360;28;20028;-59
2023/08/19 03:52:06;;;;;;;6.45;3.25;;;21.50;99.90;;;;;;5013385;28;20025;-59
2023/08/19 03:54:33;;;;;;;5.32;2.95;;;21.60;99.90;;;;;;5031246;28;20146;-59
2023/08/19 03:56:59;;;;;;;7.18;3.00;;;21.70;99.90;;;;;;5031250;28;20034;-59
2023/08/19 03:59:25;;;;;;;6.28;2.33;;;21.80;99.90;;;;;;5031687;28;20498;-60
2023/08/19 04:01:51;;;;;;;11.07;3.42;;;22.00;99.90;;;;;;5013412;28;20022;-60
2023/08/19 04:04:17;;;;;;;4.90;2.88;;;22.00;99.90;;;;;;5013313;28;20032;-59
2023/08/19 04:06:43;;;;;;;6.25;2.63;;;22.20;99.90;;;;;;5013103;28;20033;-59
2023/08/19 04:09:09;;;;;;;5.75;2.72;;;22.30;99.90;;;;;;5031004;28;20040;-59
2023/08/19 04:11:36;;;;;;;6.53;2.80;;;22.40;99.90;;;;;;5030985;28;20482;-59
2023/08/19 04:14:02;;;;;;;7.68;3.70;;;22.50;99.90;;;;;;5013403;28;20029;-59
2023/08/19 04:16:27;;;;;;;9.20;3.30;;;22.60;99.90;;;;;;5013610;28;20033;-59
2023/08/19 04:18:53;;;;;;;8.48;2.80;;;22.60;99.90;;;;;;5013345;28;20029;-59
2023/08/19 04:21:19;;;;;;;5.28;2.70;;;22.80;99.90;;;;;;5013234;28;20025;-60
2023/08/19 04:23:44;;;;;;;5.75;2.88;;;22.80;99.90;;;;;;5012951;28;20158;-59
2023/08/19 04:26:10;;;;;;;5.22;2.78;;;22.80;99.90;;;;;;5013030;28;20037;-60
2023/08/19 04:28:37;;;;;;;4.68;2.47;;;22.80;99.90;;;;;;5012935;28;20497;-59
2023/08/19 04:31:08;;;;;;;4.25;2.55;;;22.80;99.90;;;;;;5012619;28;20053;-60
2023/08/19 04:33:57;;;;;;;5.88;2.95;;;22.90;99.90;;;;;;5022395;28;20128;-59
2023/08/19 04:36:23;;;;;;;5.22;2.53;;;22.90;99.90;;;;;;5012958;28;20553;-58
2023/08/19 04:38:49;;;;;;;4.85;2.40;;;23.00;99.90;;;;;;5012816;28;20497;-59
2023/08/19 04:41:14;;;;;;;5.78;3.22;;;23.00;99.90;;;;;;5012962;28;20025;-60
2023/08/19 04:43:46;;;;;;;6.85;3.40;;;23.00;99.90;;;;;;5012593;28;20041;-58
2023/08/19 04:46:13;;;;;;;5.28;2.80;;;22.90;99.90;;;;;;5012767;28;20025;-59
2023/08/19 04:48:39;;;;;;;5.80;2.80;;;22.90;99.90;;;;;;5030715;28;20079;-59
2023/08/19 04:51:05;;;;;;;6.53;2.38;;;22.80;99.90;;;;;;5012786;28;20131;-58
2023/08/19 04:53:30;;;;;;;4.85;2.72;;;22.80;99.90;;;;;;5012359;28;20053;-59
2023/08/19 04:56:02;;;;;;;7.20;3.38;;;22.70;99.90;;;;;;5012828;28;20033;-59
2023/08/19 04:58:28;;;;;;;6.13;2.70;;;22.70;99.90;;;;;;5012610;28;20083;-59
2023/08/19 05:00:54;;;;;;;9.02;5.15;;;22.60;99.90;;;;;;5012778;28;20124;-59
2023/08/19 05:03:22;;;;;;;8.20;4.50;;;22.60;99.90;;;;;;5012244;28;20491;-60
2023/08/19 05:05:48;;;;;;;10.73;5.75;;;22.50;99.90;;;;;;5030363;28;20057;-57
2023/08/19 05:08:14;;;;;;;7.05;3.42;;;22.50;99.90;;;;;;5012411;28;20083;-58
2023/08/19 05:10:40;;;;;;;7.70;3.97;;;22.50;99.90;;;;;;5012742;28;20479;-59
2023/08/19 05:13:07;;;;;;;8.90;4.72;;;22.60;99.90;;;;;;5012395;28;20032;-57
2023/08/19 05:15:33;;;;;;;9.95;5.05;;;22.60;99.90;;;;;;5012560;28;20502;-58
2023/08/19 05:17:58;;;;;;;11.48;5.53;;;22.60;99.90;;;;;;5012213;28;20124;-59
2023/08/19 05:20:24;;;;;;;6.25;3.40;;;22.70;99.90;;;;;;5012585;28;20033;-60
2023/08/19 05:22:50;;;;;;;9.40;4.15;;;22.70;99.90;;;;;;5029919;28;20482;-59
2023/08/19 05:25:15;;;;;;;9.40;5.13;;;22.70;99.90;;;;;;5030126;28;20471;-60
2023/08/19 05:27:42;;;;;;;6.00;2.80;;;22.80;99.90;;;;;;5029947;28;20163;-60
2023/08/19 05:30:08;;;;;;;4.20;2.67;;;22.90;99.90;;;;;;5030173;28;20029;-60
2023/08/19 05:32:33;;;;;;;7.18;3.60;;;23.00;99.90;;;;;;5029702;28;20025;-59
2023/08/19 05:34:59;;;;;;;6.78;4.18;;;23.10;99.90;;;;;;5030212;28;20033;-60
2023/08/19 05:37:25;;;;;;;11.10;4.63;;;23.20;99.90;;;;;;5029891;28;20661;-60
2023/08/19 05:39:50;;;;;;;4.82;2.42;;;23.30;99.90;;;;;;5030171;28;20457;-58
2023/08/19 05:42:16;;;;;;;6.72;3.13;;;23.40;99.90;;;;;;5030391;28;20029;-59
2023/08/19 05:44:42;;;;;;;7.10;4.15;;;23.50;99.90;;;;;;5015886;28;20049;-59
2023/08/19 05:47:09;;;;;;;5.93;3.33;;;23.60;99.90;;;;;;5033837;28;20021;-59
2023/08/19 05:49:35;;;;;;;5.72;2.85;;;23.60;99.90;;;;;;5033600;28;20037;-60
2023/08/19 05:52:00;;;;;;;7.97;5.22;;;23.60;99.90;;;;;;5033369;28;20021;-60
2023/08/19 05:54:26;;;;;;;8.05;3.78;;;23.60;99.90;;;;;;5033702;28;20022;-59
2023/08/19 05:56:52;;;;;;;5.40;2.65;;;23.70;99.90;;;;;;5033886;28;20029;-60
2023/08/19 05:59:17;;;;;;;12.00;7.43;;;23.70;99.90;;;;;;5033477;28;20418;-59
2023/08/19 06:01:43;;;;;;;5.35;2.70;;;23.80;99.90;;;;;;5033152;28;20116;-57
2023/08/19 06:04:08;;;;;;;7.55;4.60;;;23.80;99.90;;;;;;5033720;28;20117;-58
2023/08/19 06:06:34;;;;;;;5.68;2.67;;;23.90;99.90;;;;;;5015451;28;20040;-59
2023/08/19 06:09:00;;;;;;;9.07;4.07;;;23.90;99.90;;;;;;5033023;28;20041;-59
2023/08/19 06:11:25;;;;;;;5.28;2.70;;;23.90;99.90;;;;;;5033091;28;20021;-59
2023/08/19 06:13:51;;;;;;;11.70;6.45;;;24.00;99.90;;;;;;5033135;28;20379;-59
2023/08/19 06:16:17;;;;;;;8.70;4.38;;;24.00;99.90;;;;;;5033042;28;20497;-59
2023/08/19 06:18:42;;;;;;;6.50;3.72;;;24.00;99.90;;;;;;5032934;28;20072;-59
2023/08/19 06:21:08;;;;;;;5.38;3.47;;;24.00;99.90;;;;;;5033137;28;20271;-59
2023/08/19 06:23:34;;;;;;;4.38;2.28;;;24.00;99.90;;;;;;5032733;28;20482;-60
2023/08/19 06:25:59;;;;;;;6.65;2.58;;;24.00;99.90;;;;;;5032975;28;20108;-60
2023/08/19 06:28:25;;;;;;;7.75;4.25;;;24.00;99.90;;;;;;5032811;28;20047;-60
2023/08/19 06:30:51;;;;;;;5.20;2.60;;;24.10;99.90;;;;;;5032845;28;20025;-60
2023/08/19 06:33:17;;;;;;;4.75;2.90;;;24.10;99.90;;;;;;5032773;28;20041;-60
2023/08/19 06:35:49;;;;;;;3.95;2.17;;;24.10;99.90;;;;;;5032765;28;20112;-59
2023/08/19 06:38:23;;;;;;;4.20;2.20;;;24.20;99.90;;;;;;5032716;28;20037;-62
2023/08/19 06:41:10;;;;;;;4.18;2.13;;;24.30;99.90;;;;;;5032699;28;20047;-59
2023/08/19 06:43:37;;;;;;;5.85;2.88;;;24.30;99.90;;;;;;5032132;28;20049;-59
2023/08/19 06:46:05;;;;;;;6.60;2.55;;;24.40;99.90;;;;;;5032545;28;20033;-59
2023/08/19 06:48:32;;;;;;;4.93;2.75;;;24.40;99.90;;;;;;5032546;28;20034;-59
2023/08/19 06:50:59;;;;;;;5.15;2.10;;;24.30;99.90;;;;;;5032650;28;20481;-56
2023/08/19 06:53:25;;;;;;;4.43;2.30;;;24.40;99.90;;;;;;5032159;28;20092;-60
2023/08/19 06:56:09;;;;;;;5.13;2.28;;;24.40;99.90;;;;;;5032418;28;20037;-60
2023/08/19 06:58:43;;;;;;;5.22;2.88;;;24.50;99.90;;;;;;5032266;28;20034;-60
2023/08/19 07:01:17;;;;;;;4.10;2.40;;;24.50;99.90;;;;;;5032381;28;20075;-60
2023/08/19 07:03:45;;;;;;;5.00;2.70;;;24.50;99.90;;;;;;5032300;28;20043;-60
2023/08/19 07:06:12;;;;;;;5.40;2.47;;;24.50;99.90;;;;;;5032156;28;20048;-60
2023/08/19 07:08:40;;;;;;;5.05;2.15;;;24.50;99.90;;;;;;5032060;28;20040;-59
2023/08/19 07:11:05;;;;;;;5.38;2.05;;;24.60;99.90;;;;;;5032298;28;20029;-59
2023/08/19 07:13:31;;;;;;;4.88;2.40;;;24.60;99.90;;;;;;5032087;28;20111;-60
2023/08/19 07:16:03;;;;;;;5.07;2.72;;;24.60;99.90;;;;;;5032194;28;20033;-60
2023/08/19 07:18:38;;;;;;;4.13;2.00;;;24.60;99.90;;;;;;5032581;28;20120;-59
2023/08/19 07:21:04;;;;;;;4.43;2.30;;;24.70;99.90;;;;;;5032183;28;20037;-59
2023/08/19 07:23:30;;;;;;;4.93;2.58;;;24.60;99.90;;;;;;5031959;28;20037;-60
2023/08/19 07:25:58;;;;;;;4.13;2.20;;;24.70;99.90;;;;;;5032141;28;20386;-59
2023/08/19 07:28:24;;;;;;;4.80;2.13;;;24.70;99.90;;;;;;5032045;28;20030;-60
2023/08/19 07:30:51;;;;;;;4.55;2.00;;;24.80;99.90;;;;;;5032030;28;20388;-60
2023/08/19 07:33:17;;;;;;;4.68;2.40;;;25.00;99.90;;;;;;5031469;28;20114;-60
2023/08/19 07:35:43;;;;;;;5.10;2.00;;;25.00;99.90;;;;;;5031661;28;20037;-60
2023/08/19 07:38:09;;;;;;;3.97;2.20;;;25.10;99.90;;;;;;5031504;28;20041;-60
2023/08/19 07:40:35;;;;;;;3.13;2.03;;;25.20;99.90;;;;;;5031958;28;20168;-60
2023/08/19 07:43:01;;;;;;;5.75;2.08;;;25.30;99.90;;;;;;5031483;28;20041;-59
2023/08/19 07:45:26;;;;;;;4.80;2.15;;;25.30;99.90;;;;;;5031461;28;20091;-59
2023/08/19 07:47:52;;;;;;;5.20;2.97;;;25.40;99.90;;;;;;5031323;28;20033;-59
2023/08/19 07:50:17;;;;;;;3.38;1.90;;;25.50;99.90;;;;;;5031343;28;20036;-59
2023/08/19 07:52:43;;;;;;;4.57;2.00;;;25.50;99.90;;;;;;5031031;28;20068;-59
2023/08/19 07:55:10;;;;;;;6.55;2.00;;;25.60;99.90;;;;;;5031190;28;20029;-59
2023/08/19 07:57:36;;;;;;;4.70;2.00;;;25.60;99.90;;;;;;5031142;28;20453;-60
2023/08/19 08:00:02;;;;;;;5.50;2.47;;;25.70;99.90;;;;;;5031148;28;20033;-60
2023/08/19 08:02:38;;;;;;;3.72;2.05;;;25.70;99.90;;;;;;5030776;28;20076;-59
2023/08/19 08:05:03;;;;;;;7.28;2.88;;;25.90;99.90;;;;;;5030206;28;20077;-60
2023/08/19 08:07:30;;;;;;;6.63;2.95;;;26.00;99.90;;;;;;5030716;28;20040;-57
2023/08/19 08:09:55;;;;;;;5.80;2.30;;;26.20;99.90;;;;;;5031095;28;20029;-59
2023/08/19 08:12:21;;;;;;;4.38;2.50;;;26.30;99.90;;;;;;5013230;28;20033;-57
2023/08/19 08:14:47;;;;;;;6.07;2.50;;;26.40;99.90;;;;;;5030848;28;20112;-59
2023/08/19 08:17:12;;;;;;;6.63;3.22;;;26.40;99.90;;;;;;5030786;28;20032;-59
2023/08/19 08:19:38;;;;;;;4.45;2.20;;;26.60;99.90;;;;;;5030965;28;20025;-58
2023/08/19 08:22:05;;;;;;;6.57;2.60;;;26.60;99.90;;;;;;5030775;28;20018;-59
2023/08/19 08:24:31;;;;;;;5.47;2.00;;;26.60;99.90;;;;;;5030755;28;20038;-57
2023/08/19 08:26:57;;;;;;;4.93;2.20;;;26.60;99.90;;;;;;5030542;28;20037;-59
2023/08/19 08:29:24;;;;;;;4.63;2.42;;;26.60;99.90;;;;;;5030731;28;20079;-59
2023/08/19 08:31:49;;;;;;;3.88;2.33;;;26.60;99.90;;;;;;5030451;28;20095;-59
2023/08/19 08:34:15;;;;;;;3.72;2.20;;;26.60;99.90;;;;;;5030593;28;20480;-57
2023/08/19 08:36:41;;;;;;;3.65;2.20;;;26.60;99.90;;;;;;5030553;28;20033;-58
2023/08/19 08:39:06;;;;;;;4.50;2.08;;;26.60;99.90;;;;;;5030713;28;20184;-59
2023/08/19 08:41:37;;;;;;;4.70;2.30;;;26.60;99.90;;;;;;5030610;28;20040;-59
2023/08/19 08:44:04;;;;;;;5.00;2.75;;;26.60;99.90;;;;;;5030520;28;20029;-59
2023/08/19 08:46:30;;;;;;;4.85;2.50;;;26.60;99.90;;;;;;5030573;28;20041;-59
2023/08/19 08:48:56;;;;;;;3.65;2.45;;;26.70;99.90;;;;;;5030282;28;20149;-57
2023/08/19 08:51:22;;;;;;;4.68;2.10;;;26.80;99.90;;;;;;5012788;28;20456;-59
2023/08/19 08:53:49;;;;;;;3.78;2.55;;;26.80;99.90;;;;;;5030343;28;20026;-59
2023/08/19 08:56:15;;;;;;;3.72;2.38;;;26.90;99.90;;;;;;5030656;28;20099;-56
2023/08/19 08:58:40;;;;;;;4.45;2.30;;;27.00;99.90;;;;;;5030325;28;20033;-58
2023/08/19 09:01:07;;;;;;;3.33;2.33;;;27.10;99.90;;;;;;5030534;28;20041;-59
2023/08/19 09:03:33;;;;;;;4.53;2.75;;;27.10;99.90;;;;;;5030044;28;20041;-58
2023/08/19 09:06:23;;;;;;;5.85;2.08;;;27.20;99.90;;;;;;5030583;28;20084;-58
2023/08/19 09:09:12;;;;;;;5.22;2.63;;;27.20;99.90;;;;;;5029676;28;20130;-60
2023/08/19 09:11:40;;;;;;;4.22;2.58;;;27.30;99.90;;;;;;5019631;28;20040;-59
2023/08/19 09:14:09;;;;;;;4.47;2.08;;;27.40;99.90;;;;;;5030247;28;20033;-58
2023/08/19 09:16:35;;;;;;;5.82;2.80;;;27.50;99.90;;;;;;5031573;28;20030;-57
2023/08/19 09:19:01;;;;;;;6.18;2.67;;;27.60;99.90;;;;;;5034001;28;20437;-60
2023/08/19 09:21:26;;;;;;;4.88;2.88;;;27.60;99.90;;;;;;5034006;28;20390;-59
2023/08/19 09:23:52;;;;;;;6.50;3.08;;;27.70;99.90;;;;;;5033937;28;20041;-57
2023/08/19 09:26:18;;;;;;;4.57;2.88;;;27.80;99.90;;;;;;5034095;28;20092;-60
2023/08/19 09:28:43;;;;;;;4.78;2.20;;;27.80;99.90;;;;;;5033973;28;20053;-59
2023/08/19 09:31:22;;;;;;;4.88;2.40;;;27.80;99.90;;;;;;5034120;28;20425;-58
2023/08/19 09:33:48;;;;;;;4.38;2.50;;;27.90;99.90;;;;;;5034042;28;20026;-58
2023/08/19 09:36:14;;;;;;;6.80;2.75;;;27.80;99.90;;;;;;5016246;28;20456;-59
2023/08/19 09:38:41;;;;;;;5.03;2.60;;;27.80;99.90;;;;;;5033773;28;20033;-58
2023/08/19 09:41:06;;;;;;;5.05;3.15;;;27.80;99.90;;;;;;5033921;28;20033;-57
2023/08/19 09:43:33;;;;;;;6.25;2.85;;;27.80;99.90;;;;;;5033531;28;20470;-58
2023/08/19 09:46:00;;;;;;;4.25;2.45;;;27.80;99.90;;;;;;5033737;28;20044;-55
2023/08/19 09:48:26;;;;;;;4.97;3.13;;;27.80;99.90;;;;;;5033722;28;20029;-57
2023/08/19 09:50:52;;;;;;;4.75;2.20;;;27.90;99.90;;;;;;5033725;28;20029;-57
2023/08/19 09:53:18;;;;;;;6.57;3.38;;;28.00;99.90;;;;;;5033575;28;20026;-59
2023/08/19 09:55:49;;;;;;;6.93;2.90;;;28.00;99.90;;;;;;5033673;28;20490;-57
2023/08/19 09:58:15;;;;;;;5.97;3.10;;;28.00;99.90;;;;;;5015555;28;20034;-55
2023/08/19 10:00:42;;;;;;;6.30;2.90;;;28.10;99.90;;;;;;5033542;28;20026;-58
2023/08/19 10:03:08;;;;;;;3.92;2.58;;;28.10;99.90;;;;;;5033297;28;20084;-58
2023/08/19 10:05:39;;;;;;;5.78;3.33;;;28.00;99.90;;;;;;5033211;28;20030;-58
2023/08/19 10:08:13;;;;;;;5.13;2.92;;;28.00;99.90;;;;;;5033121;28;20072;-57
2023/08/19 10:10:42;;;;;;;6.28;2.88;;;28.00;99.90;;;;;;5033422;28;20429;-57
2023/08/19 10:13:11;;;;;;;4.78;3.33;;;28.00;99.90;;;;;;5033291;28;20117;-55
2023/08/19 10:15:38;;;;;;;6.32;2.70;;;28.00;99.90;;;;;;5033393;28;20025;-58
2023/08/19 10:18:25;;;;;;;7.57;3.10;;;28.00;99.90;;;;;;5033107;28;20171;-54
2023/08/19 10:20:54;;;;;;;6.07;2.78;;;28.00;99.90;;;;;;5033369;28;20037;-59
2023/08/19 10:23:21;;;;;;;5.63;3.47;;;28.00;99.90;;;;;;5032869;28;20044;-58
2023/08/19 10:25:47;;;;;;;5.65;3.67;;;28.00;99.90;;;;;;5032931;28;20048;-59
2023/08/19 10:28:23;;;;;;;5.95;2.97;;;28.10;99.90;;;;;;5031865;28;20371;-59
2023/08/19 10:31:10;;;;;;;3.63;2.92;;;28.20;99.90;;;;;;5032959;28;20068;-57
2023/08/19 10:33:46;;;;;;;5.78;3.15;;;28.30;99.90;;;;;;5032657;28;20021;-55
2023/08/19 10:36:16;;;;;;;8.10;3.60;;;28.30;99.90;;;;;;5032882;28;20068;-58
2023/08/19 10:38:45;;;;;;;5.65;3.45;;;28.40;99.90;;;;;;5032672;28;20053;-56
2023/08/19 10:41:21;;;;;;;6.35;3.35;;;28.40;99.90;;;;;;5032645;28;20567;-57
2023/08/19 10:43:53;;;;;;;5.93;3.67;;;28.60;99.90;;;;;;5032721;28;20037;-58
2023/08/19 10:46:18;;;;;;;5.57;3.50;;;28.70;99.90;;;;;;5032840;28;20030;-60
2023/08/19 10:48:53;;;;;;;5.90;3.75;;;28.90;99.90;;;;;;5032513;28;20026;-58
2023/08/19 10:51:20;;;;;;;10.70;4.72;;;29.10;99.90;;;;;;5032569;28;20044;-58
2023/08/19 10:54:06;;;;;;;6.43;4.50;;;29.20;99.90;;;;;;5032743;28;20022;-58
2023/08/19 10:56:32;;;;;;;8.18;5.13;;;29.20;99.90;;;;;;5032518;28;20064;-56
2023/08/19 10:58:58;;;;;;;7.25;4.45;;;29.20;99.90;;;;;;5033077;28;20443;-58
2023/08/19 11:01:29;;;;;;;9.38;4.47;;;29.10;99.90;;;;;;5032731;28;20401;-58
2023/08/19 11:03:58;;;;;;;6.63;4.55;;;29.00;99.90;;;;;;5032849;28;20482;-57
2023/08/19 11:06:29;;;;;;;;;;;28.90;99.90;;;;;;5033418;28;20121;-64
2023/08/19 11:08:59;;;;;;;5.65;4.38;;;28.80;99.90;;;;;;5032591;28;19919;-57
2023/08/19 11:11:25;;;;;;;7.82;5.20;;;28.80;99.90;;;;;;5032579;28;20390;-58
2023/08/19 11:13:52;;;;;;;8.10;4.63;;;28.80;99.90;;;;;;5032426;28;20470;-60
2023/08/19 11:16:18;;;;;;;6.60;4.10;;;28.70;99.90;;;;;;5032493;28;20533;-58
2023/08/19 11:18:43;;;;;;;7.18;4.45;;;28.70;99.90;;;;;;5032615;28;20112;-59
2023/08/19 11:21:09;;;;;;;8.73;4.93;;;28.60;99.90;;;;;;5014606;28;20433;-60
2023/08/19 11:23:35;;;;;;;9.48;4.93;;;28.60;99.90;;;;;;5031981;28;20049;-59
2023/08/19 11:26:01;;;;;;;7.40;4.93;;;28.50;99.90;;;;;;5032333;28;20072;-60
2023/08/19 11:28:27;;;;;;;8.95;4.85;;;28.50;99.90;;;;;;5032006;28;20052;-59
2023/08/19 11:30:52;;;;;;;8.70;5.18;;;28.50;99.90;;;;;;5032021;28;20471;-59
2023/08/19 11:33:19;;;;;;;8.10;5.13;;;28.40;99.90;;;;;;5031514;28;20052;-60
2023/08/19 11:35:46;;;;;;;10.60;5.53;;;28.40;99.90;;;;;;5031837;28;20038;-60
2023/08/19 11:38:15;;;;;;;6.75;4.90;;;28.30;99.90;;;;;;5031539;28;20402;-60
2023/08/19 11:40:44;;;;;;;10.05;5.20;;;28.30;99.90;;;;;;5031554;28;20467;-60
2023/08/19 11:43:11;;;;;;;10.10;5.45;;;28.20;99.90;;;;;;5031343;28;20029;-61
2023/08/19 11:45:38;;;;;;;10.68;5.95;;;28.10;99.90;;;;;;5031385;28;20037;-60
2023/08/19 11:48:05;;;;;;;8.52;5.50;;;28.10;99.90;;;;;;5031486;28;20406;-61
2023/08/19 11:50:34;;;;;;;8.48;5.28;;;28.10;99.90;;;;;;5031674;28;20064;-60
2023/08/19 11:53:03;;;;;;;7.88;5.40;;;28.00;99.90;;;;;;5031127;28;20092;-60
2023/08/19 11:55:29;;;;;;;8.38;5.50;;;27.90;99.90;;;;;;5031314;28;20044;-60
2023/08/19 11:57:55;;;;;;;8.18;5.80;;;27.90;99.90;;;;;;5031062;28;20040;-60
2023/08/19 12:00:25;;;;;;;8.52;4.97;;;27.90;99.90;;;;;;5031305;28;20123;-61
2023/08/19 12:02:50;;;;;;;7.75;5.07;;;27.90;99.90;;;;;;5031030;28;20079;-60
2023/08/19 12:05:25;;;;;;;10.15;5.75;;;27.80;99.90;;;;;;5031451;28;20033;-60
2023/08/19 12:07:51;;;;;;;7.70;5.05;;;27.80;99.90;;;;;;5031144;28;20044;-60
2023/08/19 12:10:16;;;;;;;13.85;5.63;;;27.80;99.90;;;;;;5031094;28;20041;-59
2023/08/19 12:12:57;;;;;;;8.15;5.57;;;27.70;99.90;;;;;;5030718;28;20036;-60
2023/08/19 12:15:23;;;;;;;6.30;4.97;;;27.60;99.90;;;;;;5031139;28;20029;-60
2023/08/19 12:17:48;;;;;;;9.82;5.38;;;27.50;99.90;;;;;;5030804;28;20033;-60
2023/08/19 12:20:14;;;;;;;7.95;5.05;;;27.50;99.90;;;;;;5031035;28;20108;-60
2023/08/19 12:22:40;;;;;;;8.02;5.70;;;27.40;99.90;;;;;;5030736;28;20075;-60
2023/08/19 12:25:08;;;;;;;9.30;5.70;;;27.40;99.90;;;;;;5030666;28;20443;-60
2023/08/19 12:27:34;;;;;;;9.35;6.00;;;27.40;99.90;;;;;;5030664;28;20029;-60
2023/08/19 12:29:59;;;;;;;8.80;6.10;;;27.30;99.90;;;;;;5030759;28;20154;-60
2023/08/19 12:32:25;;;;;;;8.02;5.70;;;27.20;99.90;;;;;;5030916;28;20033;-58
2023/08/19 12:34:52;;;;;;;11.93;6.75;;;27.10;99.90;;;;;;5030740;28;20018;-60
2023/08/19 12:37:17;;;;;;;8.35;6.03;;;27.10;99.90;;;;;;5030636;28;20556;-60
2023/08/19 12:39:43;;;;;;;9.82;6.40;;;27.10;99.90;;;;;;5030621;28;20026;-60
2023/08/19 12:42:09;;;;;;;11.48;6.72;;;27.10;99.90;;;;;;5030562;28;20069;-59
2023/08/19 12:44:34;;;;;;;9.00;6.38;;;27.10;99.90;;;;;;5030679;28;20033;-60
2023/08/19 12:47:00;;;;;;;9.52;7.20;;;27.10;99.90;;;;;;5030444;28;20165;-60